Time;durP1;ratioP1;P1;durP2;ratioP2;P2;SDS_P1;SDS_P2;PMS_P1;PMS_P2;Temp;Humidity;BMP_temperature;BMP_pressure;BME280_temperature;BME280_humidity;BME280_pressure;Samples;Min_cycle;Max_cycle;Signal;HPM_P1;HPM_P2
2023/05/29 00:02:44;;;;;;;;;;;16.20;77.80;;;;;;21005186;28;19994;-57
2023/05/29 00:12:44;;;;;;;;;;;16.20;77.90;;;;;;21005787;28;19929;-58
2023/05/29 00:22:45;;;;;;;;;;;16.20;77.80;;;;;;21004503;28;19964;-58
2023/05/29 00:32:46;;;;;;;;;;;16.20;78.20;;;;;;21004068;28;19975;-56
2023/05/29 00:42:46;;;;;;;;;;;16.20;78.10;;;;;;21003344;28;19929;-57
2023/05/29 00:52:47;;;;;;;;;;;16.20;77.90;;;;;;21002453;28;19928;-57
2023/05/29 01:02:48;;;;;;;;;;;16.20;77.30;;;;;;21000238;28;20286;-57
2023/05/29 01:12:51;;;;;;;;;;;16.20;77.10;;;;;;21000693;28;19932;-56
2023/05/29 01:22:52;;;;;;;;;;;16.20;77.00;;;;;;20999885;28;19924;-56
2023/05/29 01:32:52;;;;;;;;;;;16.30;76.80;;;;;;20998897;28;19925;-57
2023/05/29 01:42:53;;;;;;;;;;;16.30;76.60;;;;;;20998683;28;19931;-57
2023/05/29 01:52:56;;;;;;;;;;;16.20;76.50;;;;;;20997491;28;20465;-57
2023/05/29 02:02:56;;;;;;;;;;;16.30;76.40;;;;;;20996528;28;19928;-57
2023/05/29 02:12:57;;;;;;;;;;;16.20;76.80;;;;;;20997422;28;20023;-56
2023/05/29 02:22:58;;;;;;;;;;;16.20;77.20;;;;;;20996323;28;19924;-57
2023/05/29 02:32:58;;;;;;;;;;;16.10;77.70;;;;;;20996643;28;19936;-57
2023/05/29 02:42:59;;;;;;;;;;;16.00;77.60;;;;;;21005439;28;19924;-56
2023/05/29 02:52:59;;;;;;;;;;;16.10;78.00;;;;;;21011967;28;20327;-58
2023/05/29 03:03:00;;;;;;;;;;;16.10;77.90;;;;;;21009647;28;19931;-57
2023/05/29 03:13:01;;;;;;;;;;;16.00;77.80;;;;;;21010641;28;19930;-57
2023/05/29 03:23:01;;;;;;;;;;;16.00;77.90;;;;;;21008939;28;19972;-56
2023/05/29 03:33:03;;;;;;;;;;;16.10;77.60;;;;;;21008844;28;19971;-56
2023/05/29 03:43:04;;;;;;;;;;;16.10;77.80;;;;;;21007083;28;19925;-56
2023/05/29 03:53:04;;;;;;;;;;;16.00;78.20;;;;;;21005491;28;20270;-59
2023/05/29 04:03:06;;;;;;;;;;;16.00;78.50;;;;;;21006413;28;19924;-57
2023/05/29 04:13:07;;;;;;;;;;;16.00;78.50;;;;;;21005678;28;20436;-56
2023/05/29 04:23:07;;;;;;;;;;;16.00;78.70;;;;;;21004147;28;19932;-58
2023/05/29 04:33:09;;;;;;;;;;;16.00;79.00;;;;;;21004338;28;19977;-56
2023/05/29 04:43:10;;;;;;;;;;;15.90;79.10;;;;;;21001719;28;19924;-57
2023/05/29 04:53:11;;;;;;;;;;;15.90;79.50;;;;;;21001780;28;19972;-55
2023/05/29 05:03:16;;;;;;;;;;;15.90;79.80;;;;;;21000519;28;20233;-56
2023/05/29 05:13:17;;;;;;;;;;;15.90;80.00;;;;;;21000486;28;19925;-56
2023/05/29 05:23:17;;;;;;;;;;;16.00;80.10;;;;;;20999228;28;19929;-58
2023/05/29 05:33:18;;;;;;;;;;;16.00;80.00;;;;;;20999098;28;19935;-57
2023/05/29 05:43:20;;;;;;;;;;;16.10;79.60;;;;;;20997303;28;19933;-57
2023/05/29 05:53:21;;;;;;;;;;;16.10;79.50;;;;;;20996487;28;19931;-58
2023/05/29 06:03:22;;;;;;;;;;;16.20;78.90;;;;;;20996132;28;19925;-58
2023/05/29 06:13:22;;;;;;;;;;;16.40;78.00;;;;;;20996769;28;19933;-57
2023/05/29 06:23:23;;;;;;;;;;;16.60;77.20;;;;;;20996642;28;19925;-59
2023/05/29 06:33:24;;;;;;;;;;;16.80;76.20;;;;;;20994987;28;19947;-56
2023/05/29 06:43:25;;;;;;;;;;;17.10;75.60;;;;;;20986939;28;20003;-57
2023/05/29 06:53:26;;;;;;;;;;;17.10;75.40;;;;;;20994794;28;19978;-55
2023/05/29 07:03:27;;;;;;;;;;;17.20;74.80;;;;;;20994191;28;19968;-57
2023/05/29 07:13:27;;;;;;;;;;;17.70;73.70;;;;;;20992990;28;19967;-57
2023/05/29 07:23:28;;;;;;;;;;;18.00;71.00;;;;;;20993111;28;19978;-56
2023/05/29 07:33:29;;;;;;;;;;;18.10;70.10;;;;;;21007147;28;20355;-57
2023/05/29 07:43:30;;;;;;;;;;;18.20;69.70;;;;;;21007357;28;19973;-57
2023/05/29 07:53:30;;;;;;;;;;;18.20;69.70;;;;;;21005170;28;19924;-56
2023/05/29 08:03:32;;;;;;;;;;;18.20;69.80;;;;;;21004908;28;19925;-56
2023/05/29 08:13:32;;;;;;;;;;;18.90;68.60;;;;;;21004022;28;19932;-58
2023/05/29 08:23:33;;;;;;;;;;;19.50;65.10;;;;;;21003708;28;20271;-57
2023/05/29 08:33:34;;;;;;;;;;;19.80;62.90;;;;;;21002683;28;19932;-56
2023/05/29 08:43:34;;;;;;;;;;;19.70;63.60;;;;;;21000089;28;20258;-57
2023/05/29 08:53:35;;;;;;;;;;;20.30;60.60;;;;;;21001685;28;19925;-57
2023/05/29 09:03:37;;;;;;;;;;;20.30;60.80;;;;;;21000669;28;19971;-57
2023/05/29 09:13:38;;;;;;;;;;;20.40;59.40;;;;;;21000142;28;20313;-56
2023/05/29 09:23:39;;;;;;;;;;;20.50;56.90;;;;;;20998826;28;19966;-55
2023/05/29 09:33:46;;;;;;;;;;;20.20;58.40;;;;;;20998925;28;19925;-56
2023/05/29 09:43:48;;;;;;;;;;;20.30;58.90;;;;;;20998194;28;20479;-58
2023/05/29 09:53:50;;;;;;;;;;;20.40;57.90;;;;;;20996893;28;19924;-56
2023/05/29 10:03:51;;;;;;;;;;;20.80;56.20;;;;;;20997341;28;19931;-56
2023/05/29 10:13:52;;;;;;;;;;;21.10;54.80;;;;;;20996772;28;19924;-58
2023/05/29 10:23:54;;;;;;;;;;;21.20;53.00;;;;;;20995517;28;19978;-57
2023/05/29 10:34:18;;;;;;;;;;;21.30;52.00;;;;;;20996072;28;19948;-58
2023/05/29 10:44:31;;;;;;;;;;;21.40;51.20;;;;;;20994578;28;19977;-57
2023/05/29 10:54:40;;;;;;;;;;;21.70;48.70;;;;;;20989991;28;19929;-56
2023/05/29 11:04:41;;;;;;;;;;;21.80;49.10;;;;;;21000536;28;19925;-58
2023/05/29 11:14:46;;;;;;;;;;;21.60;49.00;;;;;;21007295;28;19928;-57
2023/05/29 11:24:47;;;;;;;;;;;21.80;48.30;;;;;;21008147;28;19970;-57
2023/05/29 11:34:48;;;;;;;;;;;22.10;48.00;;;;;;21008416;28;19932;-56
2023/05/29 11:44:48;;;;;;;;;;;22.10;47.80;;;;;;21007827;28;19924;-57
2023/05/29 11:54:49;;;;;;;;;;;21.80;48.30;;;;;;21007025;28;19931;-57
2023/05/29 12:05:04;;;;;;;;;;;21.90;48.20;;;;;;21004756;28;19925;-56
2023/05/29 12:15:06;;;;;;;;;;;22.10;46.60;;;;;;21004967;28;19928;-57
2023/05/29 12:25:07;;;;;;;;;;;22.60;46.30;;;;;;21004807;28;20435;-58
2023/05/29 12:35:17;;;;;;;;;;;22.70;45.20;;;;;;21002629;28;20062;-57
2023/05/29 12:45:18;;;;;;;;;;;22.90;45.00;;;;;;21002821;28;19976;-56
2023/05/29 12:55:19;;;;;;;;;;;22.90;44.90;;;;;;21002017;28;19933;-57
2023/05/29 13:05:22;;;;;;;;;;;22.70;45.00;;;;;;21000865;28;20442;-56
2023/05/29 13:15:23;;;;;;;;;;;23.00;44.30;;;;;;21000600;28;19948;-58
2023/05/29 13:25:25;;;;;;;;;;;23.20;44.30;;;;;;20997722;28;19924;-57
2023/05/29 13:35:26;;;;;;;;;;;23.60;43.20;;;;;;20998391;28;20301;-57
2023/05/29 13:45:27;;;;;;;;;;;23.50;42.40;;;;;;20998687;28;19931;-61
2023/05/29 13:55:28;;;;;;;;;;;23.70;42.40;;;;;;20997561;28;20007;-58
2023/05/29 14:05:28;;;;;;;;;;;23.90;42.20;;;;;;20996888;28;19967;-56
2023/05/29 14:15:29;;;;;;;;;;;23.70;42.00;;;;;;20996993;28;19928;-59
2023/05/29 14:25:30;;;;;;;;;;;23.90;42.10;;;;;;21057348;28;19930;-57
2023/05/29 14:35:30;;;;;;;;;;;23.80;41.40;;;;;;21083829;28;19971;-58
2023/05/29 14:45:31;;;;;;;;;;;23.70;41.60;;;;;;21095885;28;19931;-57
2023/05/29 14:55:37;;;;;;;;;;;23.70;41.90;;;;;;21094697;28;19975;-58
2023/05/29 15:05:37;;;;;;;;;;;23.70;41.50;;;;;;21094772;28;20081;-57
2023/05/29 15:15:38;;;;;;;;;;;23.70;48.40;;;;;;21092646;28;20012;-57
2023/05/29 15:25:39;;;;;;;;;;;23.30;50.60;;;;;;21092334;28;20411;-57
2023/05/29 15:35:40;;;;;;;;;;;23.40;51.10;;;;;;21092919;28;19931;-58
2023/05/29 15:45:43;;;;;;;;;;;23.70;49.50;;;;;;21090263;28;19975;-57
2023/05/29 15:55:44;;;;;;;;;;;23.90;49.20;;;;;;21091279;28;20377;-60
2023/05/29 16:05:44;;;;;;;;;;;24.00;49.40;;;;;;21090526;28;20000;-57
2023/05/29 16:15:47;;;;;;;;;;;23.90;49.50;;;;;;21088740;28;19931;-58
2023/05/29 16:25:48;;;;;;;;;;;23.70;49.80;;;;;;21086508;28;19939;-58
2023/05/29 16:35:48;;;;;;;;;;;23.00;45.30;;;;;;21085165;28;19924;-58
2023/05/29 16:45:50;;;;;;;;;;;21.90;49.80;;;;;;21083974;28;20072;-59
2023/05/29 16:55:50;;;;;;;;;;;20.70;62.70;;;;;;21084154;28;19924;-59
2023/05/29 17:05:52;;;;;;;;;;;19.70;65.60;;;;;;21083227;28;19931;-57
2023/05/29 17:15:52;;;;;;;;;;;19.20;66.70;;;;;;21083204;28;19931;-57
2023/05/29 17:26:02;;;;;;;;;;;19.10;68.30;;;;;;21065276;28;20442;-58
2023/05/29 17:36:03;;;;;;;;;;;18.90;68.00;;;;;;21067335;28;19928;-58
2023/05/29 17:46:04;;;;;;;;;;;19.00;67.50;;;;;;21065354;28;19924;-59
2023/05/29 17:56:04;;;;;;;;;;;18.80;68.60;;;;;;21066725;28;20384;-58
2023/05/29 18:06:05;;;;;;;;;;;18.70;69.70;;;;;;21065035;28;20297;-59
2023/05/29 18:16:08;;;;;;;;;;;18.40;69.80;;;;;;21064212;28;20020;-57
2023/05/29 18:26:09;;;;;;;;;;;18.30;70.60;;;;;;21063841;28;20430;-58
2023/05/29 18:36:11;;;;;;;;;;;18.20;70.80;;;;;;21013392;28;20072;-60
2023/05/29 18:46:12;;;;;;;;;;;18.10;73.20;;;;;;21006493;28;20393;-58
2023/05/29 18:56:12;;;;;;;;;;;18.20;73.70;;;;;;21005159;28;19924;-58
2023/05/29 19:06:13;;;;;;;;;;;18.00;72.90;;;;;;21002474;28;19980;-60
2023/05/29 19:16:14;;;;;;;;;;;17.90;73.00;;;;;;21001955;28;20328;-58
2023/05/29 19:26:14;;;;;;;;;;;17.90;72.30;;;;;;21003355;28;19974;-60
2023/05/29 19:36:15;;;;;;;;;;;17.80;72.90;;;;;;21001011;28;19924;-62
2023/05/29 19:46:16;;;;;;;;;;;17.80;72.20;;;;;;21000018;28;19924;-59
2023/05/29 19:56:16;;;;;;;;;;;17.80;72.60;;;;;;21000312;28;19929;-58
2023/05/29 20:06:17;;;;;;;;;;;17.60;74.80;;;;;;20999173;28;19924;-58
2023/05/29 20:16:18;;;;;;;;;;;17.50;73.80;;;;;;20996747;28;19928;-58
2023/05/29 20:26:18;;;;;;;;;;;17.60;72.90;;;;;;20997057;28;20047;-58
2023/05/29 20:36:19;;;;;;;;;;;17.60;74.10;;;;;;20995053;28;19924;-57
2023/05/29 20:46:22;;;;;;;;;;;17.70;74.00;;;;;;20996922;28;20340;-57
2023/05/29 20:56:22;;;;;;;;;;;17.70;73.30;;;;;;20995507;28;20347;-58
2023/05/29 21:06:23;;;;;;;;;;;17.70;73.80;;;;;;20994787;28;19983;-58
2023/05/29 21:16:23;;;;;;;;;;;17.70;74.40;;;;;;20994321;28;19924;-59
2023/05/29 21:26:25;;;;;;;;;;;17.60;74.60;;;;;;20994351;28;19929;-57
2023/05/29 21:36:26;;;;;;;;;;;17.60;74.50;;;;;;20992560;28;19931;-60
2023/05/29 21:46:26;;;;;;;;;;;17.50;74.80;;;;;;20992350;28;19928;-59
2023/05/29 21:56:29;;;;;;;;;;;17.50;74.90;;;;;;20992868;28;20381;-58
2023/05/29 22:06:31;;;;;;;;;;;17.50;75.20;;;;;;20998482;28;19973;-58
2023/05/29 22:16:32;;;;;;;;;;;17.60;75.10;;;;;;21006974;28;20011;-57
2023/05/29 22:26:32;;;;;;;;;;;17.50;75.60;;;;;;21005595;28;19982;-59
2023/05/29 22:36:34;;;;;;;;;;;17.50;75.20;;;;;;21006169;28;20297;-59
2023/05/29 22:46:36;;;;;;;;;;;17.50;74.80;;;;;;21006009;28;19925;-58
2023/05/29 22:56:38;;;;;;;;;;;17.40;73.60;;;;;;21004601;28;19934;-57
2023/05/29 23:06:39;;;;;;;;;;;17.40;73.20;;;;;;21004187;28;20378;-58
2023/05/29 23:16:40;;;;;;;;;;;17.40;73.30;;;;;;21002900;28;19978;-58
2023/05/29 23:26:41;;;;;;;;;;;17.30;72.70;;;;;;21001984;28;19931;-59
2023/05/29 23:36:42;;;;;;;;;;;17.20;72.60;;;;;;21001738;28;20022;-58
2023/05/29 23:46:42;;;;;;;;;;;17.20;72.60;;;;;;21002084;28;19924;-57
2023/05/29 23:56:43;;;;;;;;;;;17.00;76.00;;;;;;20999615;28;19982;-56
